Terminal Aerodrome Forecast
Issued by NWS

Home | Current Version | Previous Version | Text Only | Print | Product List | Glossary On
Versions: 1 2 3 4 5 6 7 8 9 10 11 12 13 14 15 16 17 18 19 20 21
178
FTAK31 PAJN 111136
TAFAWG
TAF
PAWG 111136Z 1112/1212 12012G20KT P6SM VCSH BKN100 WS020/14030KT
     FM111800 12010KT P6SM FEW035 BKN070
     FM120200 11010KT P6SM FEW005 SCT070 WS020/10025KT
     FM120800 11010KT P6SM SCT060 OVC080 WS020/12030KT PROB30
      1208/1212 -RA
      AMD LTD TO CLD VIS AND WIND 1112/1115=

USA.gov is the U.S. government's official web portal to all federal, state and local government web resources and services.